createdAt,value
2024-02-26T00:01:22.108Z,8.71
2024-02-26T00:03:50.521Z,8.69
2024-02-26T00:06:19.430Z,8.79
2024-02-26T00:08:47.998Z,8.78
2024-02-26T00:11:16.613Z,8.75
2024-02-26T00:13:46.312Z,8.76
2024-02-26T00:16:14.658Z,8.69
2024-02-26T00:18:43.091Z,8.63
2024-02-26T00:21:11.437Z,8.70
2024-02-26T00:23:39.829Z,8.70
2024-02-26T00:26:08.876Z,8.70
2024-02-26T00:28:37.240Z,8.73
2024-02-26T00:31:07.130Z,8.68
2024-02-26T00:33:34.754Z,8.06
2024-02-26T00:36:03.261Z,8.60
2024-02-26T00:38:31.667Z,8.53
2024-02-26T00:41:00.061Z,8.66
2024-02-26T00:43:28.460Z,8.68
2024-02-26T00:45:56.809Z,8.69
2024-02-26T00:48:27.779Z,8.63
2024-02-26T00:50:56.968Z,8.76
2024-02-26T00:53:26.059Z,8.78
2024-02-26T00:55:54.503Z,8.78
2024-02-26T00:58:22.913Z,8.61
2024-02-26T01:00:51.375Z,8.73
2024-02-26T01:03:20.420Z,8.62
2024-02-26T01:05:50.587Z,8.78
2024-02-26T01:08:19.045Z,8.71
2024-02-26T01:10:47.437Z,8.74
2024-02-26T01:13:16.035Z,8.79
2024-02-26T01:15:44.986Z,8.81
2024-02-26T01:18:14.631Z,8.82
2024-02-26T01:20:43.327Z,8.76
2024-02-26T01:23:14.504Z,8.69
2024-02-26T01:25:44.286Z,8.76
2024-02-26T01:28:12.679Z,8.17
2024-02-26T01:30:40.996Z,8.74
2024-02-26T01:33:09.896Z,8.73
2024-02-26T01:35:38.435Z,8.76
2024-02-26T01:38:06.971Z,8.65
2024-02-26T01:40:37.566Z,8.82
2024-02-26T01:43:06.132Z,8.77
2024-02-26T01:45:34.589Z,8.80
2024-02-26T01:48:04.300Z,8.88
2024-02-26T01:50:32.906Z,8.85
2024-02-26T01:53:01.355Z,8.71
2024-02-26T01:55:29.887Z,8.63
2024-02-26T01:58:00.158Z,8.63
2024-02-26T02:00:29.122Z,8.63
2024-02-26T02:02:57.752Z,8.65
2024-02-26T02:05:27.172Z,8.67
2024-02-26T02:07:56.574Z,8.56
2024-02-26T02:10:26.823Z,8.49
2024-02-26T02:12:55.455Z,8.62
2024-02-26T02:15:25.587Z,8.70
2024-02-26T02:17:54.147Z,8.76
2024-02-26T02:20:28.540Z,8.75
2024-02-26T02:22:56.948Z,8.78
2024-02-26T02:25:25.400Z,8.72
2024-02-26T02:27:55.837Z,8.74
2024-02-26T02:30:27.473Z,8.68
2024-02-26T02:32:56.369Z,8.67
2024-02-26T02:35:24.741Z,8.65
2024-02-26T02:37:55.391Z,8.79
2024-02-26T02:40:23.545Z,8.81
2024-02-26T02:42:52.042Z,8.81
2024-02-26T02:45:20.444Z,8.83
2024-02-26T02:47:49.040Z,8.21
2024-02-26T02:50:17.584Z,8.73
2024-02-26T02:52:45.995Z,8.66
2024-02-26T02:55:16.203Z,8.73
2024-02-26T02:57:45.784Z,8.77
2024-02-26T03:00:15.362Z,8.70
2024-02-26T03:02:43.998Z,8.71
2024-02-26T03:05:11.706Z,7.94
2024-02-26T03:07:40.097Z,8.26
2024-02-26T03:10:09.769Z,8.46
2024-02-26T03:12:39.584Z,8.52
2024-02-26T03:15:09.217Z,8.61
2024-02-26T03:17:37.693Z,8.63
2024-02-26T03:20:10.703Z,8.69
2024-02-26T03:22:41.369Z,8.61
2024-02-26T03:25:10.451Z,8.51
2024-02-26T03:27:40.125Z,8.56
2024-02-26T03:30:10.099Z,7.77
2024-02-26T03:32:38.659Z,8.25
2024-02-26T03:35:08.577Z,8.22
2024-02-26T03:37:36.973Z,8.15
2024-02-26T03:40:07.115Z,8.16
2024-02-26T03:42:34.465Z,8.23
2024-02-26T03:45:04.567Z,8.23
2024-02-26T03:47:32.993Z,8.25
2024-02-26T03:50:01.626Z,8.32
2024-02-26T03:52:29.132Z,8.39
2024-02-26T03:54:57.527Z,8.31
2024-02-26T03:57:25.934Z,8.32
2024-02-26T03:59:54.860Z,8.30
2024-02-26T04:02:25.053Z,8.40
2024-02-26T04:04:53.834Z,8.39
2024-02-26T04:07:22.354Z,8.55
2024-02-26T04:09:50.785Z,8.52
2024-02-26T04:12:19.868Z,8.52
2024-02-26T04:14:48.317Z,8.54
2024-02-26T04:17:16.653Z,8.57
2024-02-26T04:19:46.505Z,8.53
2024-02-26T04:22:14.991Z,8.43
2024-02-26T04:24:43.604Z,8.52
2024-02-26T04:27:11.921Z,8.49
2024-02-26T04:29:40.392Z,8.33
2024-02-26T04:32:08.999Z,8.34
2024-02-26T04:34:38.018Z,8.30
2024-02-26T04:37:07.844Z,8.34
2024-02-26T04:39:36.515Z,8.35
2024-02-26T04:42:05.765Z,8.41
2024-02-26T04:44:34.108Z,8.42
2024-02-26T04:47:02.896Z,8.39
2024-02-26T04:49:31.525Z,8.40
2024-02-26T04:51:58.945Z,8.41
2024-02-26T04:54:28.749Z,8.49
2024-02-26T04:56:57.136Z,8.40
2024-02-26T04:59:25.557Z,8.31
2024-02-26T05:01:54.154Z,8.37
2024-02-26T05:04:22.697Z,8.41
2024-02-26T05:06:51.284Z,8.37
2024-02-26T05:09:19.788Z,8.37
2024-02-26T05:11:49.549Z,8.33
2024-02-26T05:14:17.945Z,8.36
2024-02-26T05:16:46.339Z,8.37
2024-02-26T05:19:15.224Z,8.39
2024-02-26T05:21:45.230Z,8.41
2024-02-26T05:24:13.661Z,8.44
2024-02-26T05:26:42.202Z,8.35
2024-02-26T05:29:12.590Z,8.41
2024-02-26T05:31:40.951Z,8.35
2024-02-26T05:34:09.315Z,8.32
2024-02-26T05:36:37.716Z,8.26
2024-02-26T05:39:06.085Z,8.28
2024-02-26T05:41:34.807Z,8.29
2024-02-26T05:44:03.225Z,8.23
2024-02-26T05:46:32.913Z,8.28
2024-02-26T05:49:01.463Z,8.23
2024-02-26T05:51:29.892Z,8.08
2024-02-26T05:53:59.143Z,8.17
2024-02-26T05:56:27.542Z,8.18
2024-02-26T05:58:55.923Z,8.13
2024-02-26T06:01:25.469Z,7.62
2024-02-26T06:03:55.246Z,8.24
2024-02-26T06:06:24.803Z,8.26
2024-02-26T06:08:53.797Z,8.17
2024-02-26T06:11:23.958Z,8.18
2024-02-26T06:13:52.398Z,8.20
2024-02-26T06:16:20.767Z,8.12
2024-02-26T06:18:49.425Z,8.09
2024-02-26T06:21:19.128Z,8.04
2024-02-26T06:23:47.514Z,8.11
2024-02-26T06:26:15.900Z,8.12
2024-02-26T06:28:44.250Z,7.36
2024-02-26T06:31:12.558Z,8.08
2024-02-26T06:33:41.050Z,8.08
2024-02-26T06:36:09.902Z,8.12
2024-02-26T06:38:39.652Z,8.03
2024-02-26T06:41:08.000Z,7.68
2024-02-26T06:43:36.402Z,8.10
2024-02-26T06:46:05.164Z,8.13
2024-02-26T06:48:33.573Z,8.10
2024-02-26T06:51:02.096Z,8.08
2024-02-26T06:53:30.491Z,8.04
2024-02-26T06:56:00.213Z,8.17
2024-02-26T06:58:28.696Z,7.46
2024-02-26T07:00:57.113Z,7.69
2024-02-26T07:03:26.781Z,7.43
2024-02-26T07:05:55.410Z,8.15
2024-02-26T07:08:23.801Z,8.23
2024-02-26T07:10:52.167Z,8.21
2024-02-26T07:13:22.110Z,8.16
2024-02-26T07:15:50.444Z,8.25
2024-02-26T07:18:18.953Z,8.25
2024-02-26T07:20:47.465Z,8.34
2024-02-26T07:23:15.833Z,8.27
2024-02-26T07:25:48.380Z,8.34
2024-02-26T07:28:17.141Z,8.23
2024-02-26T07:30:47.114Z,8.15
2024-02-26T07:33:15.950Z,8.08
2024-02-26T07:35:44.394Z,8.08
2024-02-26T07:38:22.933Z,8.10
2024-02-26T07:41:03.398Z,8.05
2024-02-26T07:43:32.409Z,8.04
2024-02-26T07:46:02.141Z,7.95
2024-02-26T07:48:31.190Z,7.93
2024-02-26T07:51:01.227Z,7.84
2024-02-26T07:53:29.684Z,7.94
2024-02-26T07:55:57.988Z,7.93
2024-02-26T07:58:26.546Z,7.92
2024-02-26T08:00:55.185Z,7.88
2024-02-26T08:03:24.974Z,7.78
2024-02-26T08:05:54.172Z,7.86
2024-02-26T08:08:22.640Z,7.85
2024-02-26T08:10:51.136Z,7.77
2024-02-26T08:13:19.479Z,7.76
2024-02-26T08:15:47.784Z,7.91
2024-02-26T08:18:17.253Z,7.85
2024-02-26T08:20:47.375Z,7.81
2024-02-26T08:23:20.491Z,7.83
2024-02-26T08:25:51.318Z,7.87
2024-02-26T08:28:19.615Z,7.86
2024-02-26T08:30:48.105Z,7.78
2024-02-26T08:33:16.765Z,7.80
2024-02-26T08:35:46.763Z,7.78
2024-02-26T08:38:15.159Z,7.75
2024-02-26T08:40:44.612Z,7.84
2024-02-26T08:43:12.978Z,7.70
2024-02-26T08:45:41.444Z,7.75
2024-02-26T08:48:10.302Z,7.83
2024-02-26T08:50:38.688Z,7.82
2024-02-26T08:53:08.677Z,7.87
2024-02-26T08:55:37.027Z,7.85
2024-02-26T08:58:05.786Z,7.90
2024-02-26T09:00:34.301Z,7.68
2024-02-26T09:03:05.636Z,7.88
2024-02-26T09:05:34.483Z,7.90
2024-02-26T09:08:02.972Z,7.94
2024-02-26T09:10:34.038Z,7.99
2024-02-26T09:13:02.771Z,7.94
2024-02-26T09:15:31.337Z,7.90
2024-02-26T09:18:00.635Z,7.94
2024-02-26T09:20:29.236Z,7.81
2024-02-26T09:22:57.595Z,7.90
2024-02-26T09:25:25.946Z,7.91
2024-02-26T09:27:55.661Z,7.98
2024-02-26T09:30:24.406Z,7.81
2024-02-26T09:32:52.920Z,7.93
2024-02-26T09:35:22.463Z,8.01
2024-02-26T09:37:51.642Z,8.00
2024-02-26T09:40:20.067Z,8.06
2024-02-26T09:42:48.557Z,8.07
2024-02-26T09:45:24.334Z,8.01
2024-02-26T09:47:53.137Z,8.17
2024-02-26T09:50:24.682Z,8.07
2024-02-26T09:52:55.000Z,7.73
2024-02-26T09:55:23.428Z,8.11
2024-02-26T09:57:54.616Z,8.17
2024-02-26T10:00:29.963Z,8.13
2024-02-26T10:03:00.439Z,8.04
2024-02-26T10:05:29.570Z,8.16
2024-02-26T10:08:02.250Z,7.92
2024-02-26T10:10:32.696Z,8.24
2024-02-26T10:13:02.731Z,8.30
2024-02-26T10:15:32.684Z,8.32
2024-02-26T10:18:01.357Z,8.34
2024-02-26T10:20:30.024Z,8.34
2024-02-26T10:22:58.518Z,8.31
2024-02-26T10:25:26.909Z,8.35
2024-02-26T10:27:56.812Z,8.38
2024-02-26T10:30:27.417Z,8.35
2024-02-26T10:32:58.165Z,8.30
2024-02-26T10:35:27.340Z,8.30
2024-02-26T10:37:56.042Z,8.26
2024-02-26T10:40:24.363Z,8.37
2024-02-26T10:42:52.898Z,8.42
2024-02-26T10:45:21.951Z,8.38
2024-02-26T10:47:50.508Z,8.38
2024-02-26T10:50:20.422Z,8.37
2024-02-26T10:52:48.791Z,8.29
2024-02-26T10:55:20.801Z,8.32
2024-02-26T10:57:52.793Z,8.25
2024-02-26T11:00:21.529Z,8.38
2024-02-26T11:02:50.692Z,7.81
2024-02-26T11:05:21.057Z,8.41
2024-02-26T11:07:50.011Z,8.36
2024-02-26T11:10:19.287Z,8.33
2024-02-26T11:12:48.624Z,8.20
2024-02-26T11:15:17.774Z,8.30
2024-02-26T11:17:48.681Z,8.31
2024-02-26T11:20:19.994Z,8.31
2024-02-26T11:22:48.585Z,8.21
2024-02-26T11:25:18.106Z,8.17
2024-02-26T11:27:51.657Z,8.19
2024-02-26T11:30:21.859Z,8.26
2024-02-26T11:32:52.085Z,8.21
2024-02-26T11:35:22.694Z,8.19
2024-02-26T11:37:59.210Z,8.32
2024-02-26T11:40:28.346Z,8.20
2024-02-26T11:42:57.147Z,8.15
2024-02-26T11:45:53.232Z,8.23
2024-02-26T11:48:27.354Z,8.23
2024-02-26T11:50:59.915Z,8.40
2024-02-26T11:53:32.230Z,8.32
2024-02-26T11:56:24.854Z,8.35
2024-02-26T11:59:01.337Z,8.29
2024-02-26T12:01:48.713Z,8.35
2024-02-26T12:04:21.274Z,8.51
2024-02-26T12:06:54.823Z,8.52
2024-02-26T12:09:37.445Z,8.52
2024-02-26T12:12:08.581Z,8.50
2024-02-26T12:14:40.257Z,8.49
2024-02-26T12:17:10.365Z,8.44
2024-02-26T12:19:42.957Z,8.41
2024-02-26T12:22:17.274Z,8.34
2024-02-26T12:24:45.837Z,8.23
2024-02-26T12:27:14.462Z,8.35
2024-02-26T12:29:42.997Z,8.47
2024-02-26T12:32:12.032Z,8.42
2024-02-26T12:34:40.626Z,8.41
2024-02-26T12:37:10.402Z,8.52
2024-02-26T12:39:41.702Z,8.12
2024-02-26T12:42:10.281Z,8.57
2024-02-26T12:44:40.024Z,8.40
2024-02-26T12:47:08.629Z,8.45
2024-02-26T12:49:37.266Z,8.46
2024-02-26T12:52:07.623Z,8.57
2024-02-26T12:54:39.969Z,7.61
2024-02-26T12:57:11.174Z,8.48
2024-02-26T12:59:40.155Z,8.42
2024-02-26T13:02:09.013Z,8.42
2024-02-26T13:04:37.969Z,8.38
2024-02-26T13:07:07.029Z,8.38
2024-02-26T13:09:36.813Z,8.41
2024-02-26T13:12:09.762Z,8.51
2024-02-26T13:14:38.297Z,8.55
2024-02-26T13:17:07.303Z,8.61
2024-02-26T13:19:36.474Z,8.69
2024-02-26T13:22:09.058Z,8.66
2024-02-26T13:24:38.687Z,8.63
2024-02-26T13:27:08.308Z,8.84
2024-02-26T13:29:38.290Z,8.72
2024-02-26T13:32:08.361Z,8.89
2024-02-26T13:34:37.930Z,8.84
2024-02-26T13:37:06.937Z,8.82
2024-02-26T13:39:37.393Z,8.70
2024-02-26T13:42:09.017Z,8.78
2024-02-26T13:44:40.752Z,8.82
2024-02-26T13:47:09.208Z,8.90
2024-02-26T13:49:37.672Z,8.94
2024-02-26T13:52:06.665Z,8.93
2024-02-26T13:54:35.544Z,8.81
2024-02-26T13:57:04.278Z,8.87
2024-02-26T13:59:35.518Z,8.83
2024-02-26T14:02:05.726Z,9.09
2024-02-26T14:04:34.279Z,9.06
2024-02-26T14:07:03.205Z,8.94
2024-02-26T14:09:43.464Z,8.29
2024-02-26T14:12:15.039Z,9.01
2024-02-26T14:14:43.784Z,9.07
2024-02-26T14:17:13.898Z,8.99
2024-02-26T14:19:45.497Z,9.09
2024-02-26T14:22:14.281Z,9.07
2024-02-26T14:24:42.972Z,9.15
2024-02-26T14:27:15.615Z,9.07
2024-02-26T14:29:44.324Z,8.98
2024-02-26T14:32:14.345Z,9.03
2024-02-26T14:34:43.142Z,9.13
2024-02-26T14:37:11.593Z,8.97
2024-02-26T14:39:40.941Z,8.98
2024-02-26T14:42:09.549Z,8.93
2024-02-26T14:44:38.124Z,9.07
2024-02-26T14:47:06.931Z,9.10
2024-02-26T14:49:36.921Z,9.07
2024-02-26T14:52:06.212Z,9.09
2024-02-26T14:54:38.691Z,8.96
2024-02-26T14:57:07.983Z,9.00
2024-02-26T14:59:37.791Z,9.06
2024-02-26T15:02:06.448Z,9.06
2024-02-26T15:04:36.845Z,9.01
2024-02-26T15:07:06.229Z,9.03
2024-02-26T15:09:36.700Z,9.08
2024-02-26T15:12:07.865Z,9.03
2024-02-26T15:14:37.054Z,9.09
2024-02-26T15:17:05.968Z,9.14
2024-02-26T15:19:34.409Z,9.13
2024-02-26T15:22:04.919Z,9.05
2024-02-26T15:24:33.442Z,9.21
2024-02-26T15:27:01.947Z,9.13
2024-02-26T15:29:30.487Z,9.12
2024-02-26T15:31:58.912Z,9.22
2024-02-26T15:34:27.447Z,9.23
2024-02-26T15:36:55.934Z,9.17
2024-02-26T15:39:25.657Z,9.25
2024-02-26T15:41:54.226Z,9.13
2024-02-26T15:44:22.646Z,9.20
2024-02-26T15:46:51.249Z,8.98
2024-02-26T15:49:21.039Z,8.64
2024-02-26T15:51:49.693Z,9.19
2024-02-26T15:54:18.157Z,9.08
2024-02-26T15:56:50.020Z,9.19
2024-02-26T15:59:20.641Z,9.34
2024-02-26T16:01:50.280Z,9.31
2024-02-26T16:04:18.823Z,9.38
2024-02-26T16:06:51.284Z,9.32
2024-02-26T16:09:19.918Z,9.32
2024-02-26T16:11:49.663Z,9.34
2024-02-26T16:14:28.729Z,9.14
2024-02-26T16:17:03.472Z,9.31
2024-02-26T16:19:32.288Z,9.35
2024-02-26T16:22:00.705Z,9.42
2024-02-26T16:24:29.138Z,9.33
2024-02-26T16:26:58.897Z,8.64
2024-02-26T16:29:27.322Z,9.27
2024-02-26T16:31:55.745Z,9.28
2024-02-26T16:34:24.190Z,9.25
2024-02-26T16:36:52.961Z,9.23
2024-02-26T16:39:21.667Z,9.24
2024-02-26T16:41:50.389Z,9.24
2024-02-26T16:44:20.100Z,9.16
2024-02-26T16:46:48.488Z,9.15
2024-02-26T16:49:17.115Z,8.97
2024-02-26T16:51:45.549Z,8.88
2024-02-26T16:54:13.997Z,8.86
2024-02-26T16:56:42.703Z,8.70
2024-02-26T16:59:11.102Z,8.68
2024-02-26T17:01:41.212Z,8.60
2024-02-26T17:04:10.214Z,8.65
2024-02-26T17:06:38.695Z,8.47
2024-02-26T17:09:09.049Z,8.41
2024-02-26T17:11:39.566Z,8.43
2024-02-26T17:14:08.457Z,8.46
2024-02-26T17:16:37.451Z,8.55
2024-02-26T17:19:07.554Z,8.49
2024-02-26T17:21:36.091Z,8.53
2024-02-26T17:24:04.612Z,8.47
2024-02-26T17:26:32.995Z,8.51
2024-02-26T17:29:02.418Z,8.50
2024-02-26T17:31:31.234Z,8.41
2024-02-26T17:34:00.278Z,8.49
2024-02-26T17:36:30.232Z,8.55
2024-02-26T17:38:58.661Z,8.59
2024-02-26T17:41:27.125Z,8.52
2024-02-26T17:43:55.939Z,8.59
2024-02-26T17:46:24.348Z,8.55
2024-02-26T17:48:52.866Z,8.54
2024-02-26T17:51:21.330Z,8.53
2024-02-26T17:53:51.202Z,8.38
2024-02-26T17:56:19.591Z,8.36
2024-02-26T17:58:47.913Z,8.37
2024-02-26T18:01:16.389Z,8.19
2024-02-26T18:03:45.037Z,8.14
2024-02-26T18:06:13.863Z,8.23
2024-02-26T18:08:42.319Z,8.27
2024-02-26T18:11:13.893Z,8.27
2024-02-26T18:13:45.881Z,8.20
2024-02-26T18:16:14.750Z,8.24
2024-02-26T18:18:47.557Z,8.33
2024-02-26T18:21:17.799Z,8.34
2024-02-26T18:23:46.370Z,8.32
2024-02-26T18:26:20.439Z,8.32
2024-02-26T18:28:49.432Z,8.28
2024-02-26T18:31:18.029Z,8.30
2024-02-26T18:33:46.669Z,8.27
2024-02-26T18:36:17.243Z,8.23
2024-02-26T18:38:45.911Z,8.31
2024-02-26T18:41:22.289Z,8.15
2024-02-26T18:43:51.943Z,8.13
2024-02-26T18:46:20.631Z,8.11
2024-02-26T18:48:49.635Z,8.07
2024-02-26T18:51:18.337Z,8.15
2024-02-26T18:53:46.889Z,8.10
2024-02-26T18:56:15.927Z,8.04
2024-02-26T18:58:45.936Z,8.12
2024-02-26T19:01:14.447Z,8.07
2024-02-26T19:03:43.256Z,8.03
2024-02-26T19:06:11.875Z,7.91
2024-02-26T19:08:40.811Z,7.96
2024-02-26T19:11:09.640Z,7.78
2024-02-26T19:13:39.849Z,7.84
2024-02-26T19:16:09.747Z,7.92
2024-02-26T19:18:38.661Z,8.00
2024-02-26T19:21:07.652Z,8.06
2024-02-26T19:23:36.746Z,8.02
2024-02-26T19:26:05.759Z,8.02
2024-02-26T19:28:34.257Z,7.94
2024-02-26T19:31:02.884Z,7.97
2024-02-26T19:33:33.325Z,7.99
2024-02-26T19:36:01.798Z,7.94
2024-02-26T19:38:30.175Z,7.95
2024-02-26T19:40:58.732Z,7.97
2024-02-26T19:43:27.212Z,7.87
2024-02-26T19:45:56.694Z,7.81
2024-02-26T19:48:25.245Z,7.86
2024-02-26T19:50:56.871Z,7.85
2024-02-26T19:53:25.561Z,7.67
2024-02-26T19:55:54.024Z,7.74
2024-02-26T19:58:22.351Z,7.79
2024-02-26T20:00:51.018Z,7.70
2024-02-26T20:03:20.361Z,7.75
2024-02-26T20:05:48.838Z,7.69
2024-02-26T20:08:19.282Z,7.73
2024-02-26T20:10:51.382Z,7.65
2024-02-26T20:13:23.268Z,7.61
2024-02-26T20:15:51.713Z,7.60
2024-02-26T20:18:20.176Z,7.67
2024-02-26T20:20:48.557Z,7.58
2024-02-26T20:23:18.713Z,7.56
2024-02-26T20:25:47.113Z,7.64
2024-02-26T20:28:15.894Z,7.60
2024-02-26T20:30:44.323Z,7.59
2024-02-26T20:33:12.916Z,7.57
2024-02-26T20:35:41.299Z,7.44
2024-02-26T20:38:09.996Z,7.49
2024-02-26T20:40:39.722Z,7.47
2024-02-26T20:43:08.067Z,7.52
2024-02-26T20:45:36.488Z,7.48
2024-02-26T20:48:06.082Z,7.56
2024-02-26T20:50:34.558Z,7.53
2024-02-26T20:53:02.979Z,7.37
2024-02-26T20:55:31.372Z,7.42
2024-02-26T20:58:01.126Z,7.39
2024-02-26T21:00:29.587Z,7.32
2024-02-26T21:02:58.261Z,7.37
2024-02-26T21:05:26.838Z,7.28
2024-02-26T21:07:55.358Z,7.33
2024-02-26T21:10:26.611Z,7.32
2024-02-26T21:12:55.114Z,7.34
2024-02-26T21:15:25.282Z,7.37
2024-02-26T21:17:53.932Z,7.32
2024-02-26T21:20:24.678Z,7.23
2024-02-26T21:22:53.506Z,7.32
2024-02-26T21:25:21.907Z,7.41
2024-02-26T21:27:50.275Z,7.32
2024-02-26T21:30:18.719Z,7.32
2024-02-26T21:32:48.584Z,7.42
2024-02-26T21:35:17.355Z,7.40
2024-02-26T21:37:46.413Z,7.38
2024-02-26T21:40:15.253Z,7.28
2024-02-26T21:42:43.808Z,7.29
2024-02-26T21:45:12.794Z,7.33
2024-02-26T21:47:41.215Z,7.51
2024-02-26T21:50:12.313Z,7.54
2024-02-26T21:52:40.895Z,7.52
2024-02-26T21:55:12.504Z,7.48
2024-02-26T21:57:41.063Z,7.55
2024-02-26T22:00:10.964Z,7.51
2024-02-26T22:02:42.863Z,7.46
2024-02-26T22:05:12.962Z,7.40
2024-02-26T22:07:44.213Z,7.50
2024-02-26T22:10:12.950Z,7.53
2024-02-26T22:12:41.491Z,7.57
2024-02-26T22:15:12.293Z,7.60
2024-02-26T22:17:42.400Z,7.55
2024-02-26T22:20:13.941Z,7.64
2024-02-26T22:22:42.873Z,7.66
2024-02-26T22:25:11.489Z,7.71
2024-02-26T22:27:40.059Z,7.70
2024-02-26T22:30:10.412Z,7.43
2024-02-26T22:32:38.874Z,7.65
2024-02-26T22:35:08.035Z,7.65
2024-02-26T22:37:39.282Z,7.31
2024-02-26T22:40:10.570Z,7.55
2024-02-26T22:42:39.448Z,7.60
2024-02-26T22:45:09.155Z,7.55
2024-02-26T22:47:37.953Z,7.56
2024-02-26T22:50:07.992Z,7.55
2024-02-26T22:52:37.913Z,7.55
2024-02-26T22:55:07.716Z,7.56
2024-02-26T22:57:36.101Z,7.52
2024-02-26T23:00:26.225Z,7.58
2024-02-26T23:02:55.031Z,7.44
2024-02-26T23:05:26.415Z,7.47
2024-02-26T23:07:57.596Z,7.53
2024-02-26T23:10:26.689Z,7.56
2024-02-26T23:12:55.203Z,7.53
2024-02-26T23:15:24.272Z,7.55
2024-02-26T23:17:55.435Z,7.48
2024-02-26T23:20:25.083Z,7.53
2024-02-26T23:22:55.296Z,7.56
2024-02-26T23:25:23.884Z,7.53
2024-02-26T23:27:52.274Z,7.55
2024-02-26T23:30:20.885Z,7.57
2024-02-26T23:32:49.609Z,7.59
2024-02-26T23:35:18.302Z,7.56
2024-02-26T23:37:46.746Z,7.51
2024-02-26T23:40:17.037Z,7.51
2024-02-26T23:42:45.944Z,7.52
2024-02-26T23:45:14.726Z,7.52
2024-02-26T23:47:43.144Z,7.52
2024-02-26T23:50:12.356Z,7.46
2024-02-26T23:52:40.945Z,7.50
2024-02-26T23:55:09.769Z,7.58
2024-02-26T23:57:39.544Z,6.89
